Aviation Digital Data Service (ADDS)

Output produced by METARs form (0512 UTC 18 February 2018)
found at http://aviationweather.gov/adds/metars/
 
KGFL 180502Z 1805/1824 00000KT 2SM -SN BR OVC024 
     FM180900 29006KT P6SM OVC035 
     FM181500 30012KT P6SM BKN035